sensor_id;sensor_type;location;lat;lon;timestamp;P1;durP1;ratioP1;P2;durP2;ratioP2
4359;SDS011;2193;47.980;7.660;2022-12-15T00:00:39;22.73;;;13.20;;
4359;SDS011;2193;47.980;7.660;2022-12-15T00:03:23;25.35;;;14.32;;
4359;SDS011;2193;47.980;7.660;2022-12-15T00:06:06;24.30;;;14.23;;
4359;SDS011;2193;47.980;7.660;2022-12-15T00:08:50;23.30;;;13.45;;
4359;SDS011;2193;47.980;7.660;2022-12-15T00:11:34;24.60;;;14.20;;
4359;SDS011;2193;47.980;7.660;2022-12-15T00:14:18;20.95;;;13.38;;
4359;SDS011;2193;47.980;7.660;2022-12-15T00:17:02;25.90;;;14.90;;
4359;SDS011;2193;47.980;7.660;2022-12-15T00:19:46;22.30;;;13.63;;
4359;SDS011;2193;47.980;7.660;2022-12-15T00:22:30;22.00;;;13.73;;
4359;SDS011;2193;47.980;7.660;2022-12-15T00:25:14;23.17;;;13.88;;
4359;SDS011;2193;47.980;7.660;2022-12-15T00:27:58;23.67;;;14.02;;
4359;SDS011;2193;47.980;7.660;2022-12-15T00:30:41;26.83;;;14.95;;
4359;SDS011;2193;47.980;7.660;2022-12-15T00:33:26;23.33;;;13.93;;
4359;SDS011;2193;47.980;7.660;2022-12-15T00:36:09;24.90;;;15.68;;
4359;SDS011;2193;47.980;7.660;2022-12-15T00:38:54;28.48;;;15.93;;
4359;SDS011;2193;47.980;7.660;2022-12-15T00:41:19;28.73;;;15.93;;
4359;SDS011;2193;47.980;7.660;2022-12-15T00:43:44;27.90;;;15.87;;
4359;SDS011;2193;47.980;7.660;2022-12-15T00:46:10;29.03;;;17.10;;
4359;SDS011;2193;47.980;7.660;2022-12-15T00:48:53;32.33;;;17.27;;
4359;SDS011;2193;47.980;7.660;2022-12-15T00:51:19;30.20;;;17.10;;
4359;SDS011;2193;47.980;7.660;2022-12-15T00:53:45;31.50;;;17.27;;
4359;SDS011;2193;47.980;7.660;2022-12-15T00:56:29;33.05;;;17.67;;
4359;SDS011;2193;47.980;7.660;2022-12-15T00:59:13;31.42;;;16.48;;
4359;SDS011;2193;47.980;7.660;2022-12-15T01:01:57;31.63;;;17.67;;
4359;SDS011;2193;47.980;7.660;2022-12-15T01:04:41;33.15;;;17.38;;
4359;SDS011;2193;47.980;7.660;2022-12-15T01:07:24;32.88;;;18.05;;
4359;SDS011;2193;47.980;7.660;2022-12-15T01:10:09;33.58;;;17.85;;
4359;SDS011;2193;47.980;7.660;2022-12-15T01:12:52;33.30;;;17.70;;
4359;SDS011;2193;47.980;7.660;2022-12-15T01:15:37;34.72;;;19.63;;
4359;SDS011;2193;47.980;7.660;2022-12-15T01:18:21;35.92;;;20.48;;
4359;SDS011;2193;47.980;7.660;2022-12-15T01:21:05;35.08;;;19.08;;
4359;SDS011;2193;47.980;7.660;2022-12-15T01:23:32;35.50;;;18.65;;
4359;SDS011;2193;47.980;7.660;2022-12-15T01:25:58;36.80;;;20.27;;
4359;SDS011;2193;47.980;7.660;2022-12-15T01:28:23;43.30;;;21.60;;
4359;SDS011;2193;47.980;7.660;2022-12-15T01:30:48;39.80;;;20.87;;
4359;SDS011;2193;47.980;7.660;2022-12-15T01:33:14;43.57;;;21.80;;
4359;SDS011;2193;47.980;7.660;2022-12-15T01:35:39;39.30;;;19.70;;
4359;SDS011;2193;47.980;7.660;2022-12-15T01:38:05;36.97;;;21.03;;
4359;SDS011;2193;47.980;7.660;2022-12-15T01:40:30;40.87;;;21.27;;
4359;SDS011;2193;47.980;7.660;2022-12-15T01:43:15;37.95;;;20.35;;
4359;SDS011;2193;47.980;7.660;2022-12-15T01:45:45;34.83;;;18.15;;
4359;SDS011;2193;47.980;7.660;2022-12-15T01:48:12;34.92;;;19.25;;
4359;SDS011;2193;47.980;7.660;2022-12-15T01:50:40;38.65;;;20.40;;
4359;SDS011;2193;47.980;7.660;2022-12-15T01:53:06;39.55;;;20.88;;
4359;SDS011;2193;47.980;7.660;2022-12-15T01:55:32;40.83;;;21.50;;
4359;SDS011;2193;47.980;7.660;2022-12-15T01:57:59;38.47;;;21.30;;
4359;SDS011;2193;47.980;7.660;2022-12-15T02:00:26;40.42;;;22.08;;
4359;SDS011;2193;47.980;7.660;2022-12-15T02:02:52;44.00;;;22.00;;
4359;SDS011;2193;47.980;7.660;2022-12-15T02:05:17;44.07;;;23.20;;
4359;SDS011;2193;47.980;7.660;2022-12-15T02:07:44;51.83;;;25.25;;
4359;SDS011;2193;47.980;7.660;2022-12-15T02:10:09;51.77;;;27.10;;
4359;SDS011;2193;47.980;7.660;2022-12-15T02:25:59;57.95;;;26.48;;
4359;SDS011;2193;47.980;7.660;2022-12-15T02:31:06;52.00;;;26.83;;
4359;SDS011;2193;47.980;7.660;2022-12-15T02:33:56;50.03;;;24.50;;
4359;SDS011;2193;47.980;7.660;2022-12-15T02:36:25;51.90;;;26.55;;
4359;SDS011;2193;47.980;7.660;2022-12-15T02:38:51;50.80;;;24.42;;
4359;SDS011;2193;47.980;7.660;2022-12-15T02:41:33;52.97;;;26.33;;
4359;SDS011;2193;47.980;7.660;2022-12-15T02:43:59;43.38;;;23.33;;
4359;SDS011;2193;47.980;7.660;2022-12-15T02:46:39;43.97;;;22.88;;
4359;SDS011;2193;47.980;7.660;2022-12-15T02:49:12;50.90;;;23.77;;
4359;SDS011;2193;47.980;7.660;2022-12-15T02:51:43;51.80;;;24.83;;
4359;SDS011;2193;47.980;7.660;2022-12-15T02:56:55;44.40;;;23.55;;
4359;SDS011;2193;47.980;7.660;2022-12-15T03:01:57;48.53;;;23.40;;
4359;SDS011;2193;47.980;7.660;2022-12-15T03:04:24;51.10;;;25.23;;
4359;SDS011;2193;47.980;7.660;2022-12-15T03:06:56;44.90;;;23.43;;
4359;SDS011;2193;47.980;7.660;2022-12-15T03:09:22;47.95;;;23.27;;
4359;SDS011;2193;47.980;7.660;2022-12-15T03:11:47;49.00;;;23.37;;
4359;SDS011;2193;47.980;7.660;2022-12-15T03:14:12;42.40;;;21.60;;
4359;SDS011;2193;47.980;7.660;2022-12-15T03:16:37;43.40;;;21.80;;
4359;SDS011;2193;47.980;7.660;2022-12-15T03:19:03;43.50;;;23.03;;
4359;SDS011;2193;47.980;7.660;2022-12-15T03:21:28;44.10;;;23.40;;
4359;SDS011;2193;47.980;7.660;2022-12-15T03:23:53;40.93;;;22.23;;
4359;SDS011;2193;47.980;7.660;2022-12-15T03:26:18;40.43;;;21.23;;
4359;SDS011;2193;47.980;7.660;2022-12-15T03:28:44;41.50;;;20.63;;
4359;SDS011;2193;47.980;7.660;2022-12-15T03:31:09;38.93;;;20.80;;
4359;SDS011;2193;47.980;7.660;2022-12-15T03:33:34;41.50;;;22.60;;
4359;SDS011;2193;47.980;7.660;2022-12-15T03:35:59;40.50;;;20.30;;
4359;SDS011;2193;47.980;7.660;2022-12-15T03:38:24;41.50;;;21.03;;
4359;SDS011;2193;47.980;7.660;2022-12-15T03:40:50;42.43;;;22.57;;
4359;SDS011;2193;47.980;7.660;2022-12-15T03:43:15;45.30;;;23.27;;
4359;SDS011;2193;47.980;7.660;2022-12-15T03:45:40;40.53;;;21.30;;
4359;SDS011;2193;47.980;7.660;2022-12-15T03:48:05;40.17;;;21.17;;
4359;SDS011;2193;47.980;7.660;2022-12-15T03:50:30;42.57;;;22.30;;
4359;SDS011;2193;47.980;7.660;2022-12-15T03:52:57;42.23;;;22.40;;
4359;SDS011;2193;47.980;7.660;2022-12-15T03:55:22;48.92;;;24.40;;
4359;SDS011;2193;47.980;7.660;2022-12-15T03:57:48;46.87;;;23.30;;
4359;SDS011;2193;47.980;7.660;2022-12-15T04:00:14;49.53;;;22.90;;
4359;SDS011;2193;47.980;7.660;2022-12-15T04:02:40;45.57;;;23.90;;
4359;SDS011;2193;47.980;7.660;2022-12-15T04:05:05;48.35;;;24.38;;
4359;SDS011;2193;47.980;7.660;2022-12-15T04:07:31;45.20;;;23.97;;
4359;SDS011;2193;47.980;7.660;2022-12-15T04:09:56;49.67;;;23.23;;
4359;SDS011;2193;47.980;7.660;2022-12-15T04:12:21;38.97;;;21.87;;
4359;SDS011;2193;47.980;7.660;2022-12-15T04:14:46;44.67;;;22.20;;
4359;SDS011;2193;47.980;7.660;2022-12-15T04:17:11;38.73;;;22.07;;
4359;SDS011;2193;47.980;7.660;2022-12-15T04:19:37;43.17;;;22.87;;
4359;SDS011;2193;47.980;7.660;2022-12-15T04:22:20;43.83;;;21.75;;
4359;SDS011;2193;47.980;7.660;2022-12-15T04:24:46;47.40;;;23.77;;
4359;SDS011;2193;47.980;7.660;2022-12-15T04:27:29;46.45;;;22.58;;
4359;SDS011;2193;47.980;7.660;2022-12-15T04:30:13;46.28;;;23.55;;
4359;SDS011;2193;47.980;7.660;2022-12-15T04:32:57;49.30;;;24.58;;
4359;SDS011;2193;47.980;7.660;2022-12-15T04:35:42;49.53;;;24.00;;
4359;SDS011;2193;47.980;7.660;2022-12-15T04:38:26;49.10;;;25.38;;
4359;SDS011;2193;47.980;7.660;2022-12-15T04:41:10;49.53;;;23.60;;
4359;SDS011;2193;47.980;7.660;2022-12-15T04:43:53;54.53;;;26.60;;
4359;SDS011;2193;47.980;7.660;2022-12-15T04:46:38;53.35;;;26.35;;
4359;SDS011;2193;47.980;7.660;2022-12-15T04:49:21;51.42;;;25.15;;
4359;SDS011;2193;47.980;7.660;2022-12-15T04:52:05;45.83;;;24.60;;
4359;SDS011;2193;47.980;7.660;2022-12-15T04:54:49;43.92;;;22.05;;
4359;SDS011;2193;47.980;7.660;2022-12-15T04:57:33;46.63;;;23.30;;
4359;SDS011;2193;47.980;7.660;2022-12-15T05:00:17;46.35;;;23.40;;
4359;SDS011;2193;47.980;7.660;2022-12-15T05:03:05;49.50;;;24.75;;
4359;SDS011;2193;47.980;7.660;2022-12-15T05:05:48;41.47;;;23.02;;
4359;SDS011;2193;47.980;7.660;2022-12-15T05:08:32;47.67;;;23.15;;
4359;SDS011;2193;47.980;7.660;2022-12-15T05:11:16;44.40;;;23.40;;
4359;SDS011;2193;47.980;7.660;2022-12-15T05:14:00;43.20;;;22.58;;
4359;SDS011;2193;47.980;7.660;2022-12-15T05:16:44;44.60;;;22.73;;
4359;SDS011;2193;47.980;7.660;2022-12-15T05:19:28;46.33;;;24.13;;
4359;SDS011;2193;47.980;7.660;2022-12-15T05:22:12;43.53;;;23.13;;
4359;SDS011;2193;47.980;7.660;2022-12-15T05:24:59;43.45;;;21.85;;
4359;SDS011;2193;47.980;7.660;2022-12-15T05:27:43;43.20;;;22.08;;
4359;SDS011;2193;47.980;7.660;2022-12-15T05:30:27;40.92;;;20.58;;
4359;SDS011;2193;47.980;7.660;2022-12-15T05:33:11;44.70;;;23.48;;
4359;SDS011;2193;47.980;7.660;2022-12-15T05:35:36;44.20;;;23.07;;
4359;SDS011;2193;47.980;7.660;2022-12-15T05:38:03;41.47;;;22.40;;
4359;SDS011;2193;47.980;7.660;2022-12-15T05:40:28;41.03;;;21.38;;
4359;SDS011;2193;47.980;7.660;2022-12-15T05:42:56;40.47;;;22.43;;
4359;SDS011;2193;47.980;7.660;2022-12-15T05:45:21;41.70;;;21.63;;
4359;SDS011;2193;47.980;7.660;2022-12-15T05:47:50;47.40;;;23.40;;
4359;SDS011;2193;47.980;7.660;2022-12-15T05:50:15;46.03;;;22.30;;
4359;SDS011;2193;47.980;7.660;2022-12-15T05:52:40;42.23;;;21.50;;
4359;SDS011;2193;47.980;7.660;2022-12-15T05:55:06;39.80;;;20.60;;
4359;SDS011;2193;47.980;7.660;2022-12-15T05:57:31;41.77;;;20.90;;
4359;SDS011;2193;47.980;7.660;2022-12-15T05:59:56;43.00;;;22.53;;
4359;SDS011;2193;47.980;7.660;2022-12-15T06:02:21;40.80;;;21.50;;
4359;SDS011;2193;47.980;7.660;2022-12-15T06:04:46;42.97;;;22.40;;
4359;SDS011;2193;47.980;7.660;2022-12-15T06:07:12;39.43;;;20.60;;
4359;SDS011;2193;47.980;7.660;2022-12-15T06:09:37;39.57;;;20.43;;
4359;SDS011;2193;47.980;7.660;2022-12-15T06:12:02;37.93;;;20.17;;
4359;SDS011;2193;47.980;7.660;2022-12-15T06:14:27;45.40;;;22.90;;
4359;SDS011;2193;47.980;7.660;2022-12-15T06:16:53;38.53;;;21.30;;
4359;SDS011;2193;47.980;7.660;2022-12-15T06:19:18;37.40;;;20.60;;
4359;SDS011;2193;47.980;7.660;2022-12-15T06:21:44;45.17;;;19.80;;
4359;SDS011;2193;47.980;7.660;2022-12-15T06:24:09;37.10;;;20.10;;
4359;SDS011;2193;47.980;7.660;2022-12-15T06:26:35;36.03;;;20.40;;
4359;SDS011;2193;47.980;7.660;2022-12-15T06:29:01;38.33;;;19.70;;
4359;SDS011;2193;47.980;7.660;2022-12-15T06:31:27;39.45;;;20.13;;
4359;SDS011;2193;47.980;7.660;2022-12-15T06:33:53;31.60;;;18.17;;
4359;SDS011;2193;47.980;7.660;2022-12-15T06:36:19;33.17;;;18.88;;
4359;SDS011;2193;47.980;7.660;2022-12-15T06:38:45;42.23;;;22.23;;
4359;SDS011;2193;47.980;7.660;2022-12-15T06:41:11;49.50;;;26.65;;
4359;SDS011;2193;47.980;7.660;2022-12-15T06:43:37;41.78;;;22.52;;
4359;SDS011;2193;47.980;7.660;2022-12-15T06:46:02;42.73;;;23.53;;
4359;SDS011;2193;47.980;7.660;2022-12-15T06:48:28;44.53;;;24.27;;
4359;SDS011;2193;47.980;7.660;2022-12-15T06:50:54;46.37;;;24.43;;
4359;SDS011;2193;47.980;7.660;2022-12-15T06:53:20;43.37;;;22.70;;
4359;SDS011;2193;47.980;7.660;2022-12-15T06:55:46;48.55;;;25.73;;
4359;SDS011;2193;47.980;7.660;2022-12-15T06:58:11;47.20;;;24.23;;
4359;SDS011;2193;47.980;7.660;2022-12-15T07:00:38;43.97;;;23.60;;
4359;SDS011;2193;47.980;7.660;2022-12-15T07:03:05;53.00;;;26.15;;
4359;SDS011;2193;47.980;7.660;2022-12-15T07:05:31;52.33;;;27.08;;
4359;SDS011;2193;47.980;7.660;2022-12-15T07:07:56;48.37;;;26.03;;
4359;SDS011;2193;47.980;7.660;2022-12-15T07:10:21;46.37;;;24.50;;
4359;SDS011;2193;47.980;7.660;2022-12-15T07:12:46;54.97;;;26.57;;
4359;SDS011;2193;47.980;7.660;2022-12-15T07:15:12;58.23;;;27.93;;
4359;SDS011;2193;47.980;7.660;2022-12-15T07:17:37;55.83;;;26.50;;
4359;SDS011;2193;47.980;7.660;2022-12-15T07:20:03;54.67;;;26.43;;
4359;SDS011;2193;47.980;7.660;2022-12-15T07:22:29;49.92;;;27.00;;
4359;SDS011;2193;47.980;7.660;2022-12-15T07:24:54;50.27;;;25.30;;
4359;SDS011;2193;47.980;7.660;2022-12-15T07:27:19;54.93;;;27.07;;
4359;SDS011;2193;47.980;7.660;2022-12-15T07:29:44;54.20;;;28.07;;
4359;SDS011;2193;47.980;7.660;2022-12-15T07:32:10;53.20;;;26.63;;
4359;SDS011;2193;47.980;7.660;2022-12-15T07:34:35;60.83;;;28.00;;
4359;SDS011;2193;47.980;7.660;2022-12-15T07:37:00;57.20;;;28.13;;
4359;SDS011;2193;47.980;7.660;2022-12-15T07:39:25;57.77;;;28.33;;
4359;SDS011;2193;47.980;7.660;2022-12-15T07:41:51;61.43;;;29.03;;
4359;SDS011;2193;47.980;7.660;2022-12-15T07:44:16;57.07;;;28.27;;
4359;SDS011;2193;47.980;7.660;2022-12-15T07:46:41;58.40;;;28.63;;
4359;SDS011;2193;47.980;7.660;2022-12-15T07:49:10;53.90;;;28.33;;
4359;SDS011;2193;47.980;7.660;2022-12-15T07:51:36;58.37;;;29.93;;
4359;SDS011;2193;47.980;7.660;2022-12-15T07:54:01;57.90;;;28.20;;
4359;SDS011;2193;47.980;7.660;2022-12-15T07:56:26;57.63;;;28.00;;
4359;SDS011;2193;47.980;7.660;2022-12-15T07:58:51;54.57;;;26.80;;
4359;SDS011;2193;47.980;7.660;2022-12-15T08:01:16;54.33;;;29.00;;
4359;SDS011;2193;47.980;7.660;2022-12-15T08:03:42;60.93;;;29.63;;
4359;SDS011;2193;47.980;7.660;2022-12-15T08:06:08;59.87;;;28.60;;
4359;SDS011;2193;47.980;7.660;2022-12-15T08:08:34;62.95;;;29.33;;
4359;SDS011;2193;47.980;7.660;2022-12-15T08:11:03;64.87;;;29.77;;
4359;SDS011;2193;47.980;7.660;2022-12-15T08:13:28;63.08;;;30.90;;
4359;SDS011;2193;47.980;7.660;2022-12-15T08:15:53;56.90;;;26.70;;
4359;SDS011;2193;47.980;7.660;2022-12-15T08:18:19;64.50;;;30.87;;
4359;SDS011;2193;47.980;7.660;2022-12-15T08:20:44;61.67;;;29.07;;
4359;SDS011;2193;47.980;7.660;2022-12-15T08:23:09;60.20;;;30.93;;
4359;SDS011;2193;47.980;7.660;2022-12-15T08:25:35;56.27;;;27.33;;
4359;SDS011;2193;47.980;7.660;2022-12-15T08:28:00;61.37;;;29.27;;
4359;SDS011;2193;47.980;7.660;2022-12-15T08:30:25;60.47;;;29.07;;
4359;SDS011;2193;47.980;7.660;2022-12-15T08:32:50;63.20;;;29.77;;
4359;SDS011;2193;47.980;7.660;2022-12-15T08:35:16;61.07;;;30.57;;
4359;SDS011;2193;47.980;7.660;2022-12-15T08:37:41;67.37;;;30.10;;
4359;SDS011;2193;47.980;7.660;2022-12-15T08:40:07;55.63;;;28.17;;
4359;SDS011;2193;47.980;7.660;2022-12-15T08:42:33;50.80;;;26.50;;
4359;SDS011;2193;47.980;7.660;2022-12-15T08:44:58;55.33;;;27.20;;
4359;SDS011;2193;47.980;7.660;2022-12-15T08:47:23;58.97;;;29.50;;
4359;SDS011;2193;47.980;7.660;2022-12-15T08:49:49;61.40;;;29.13;;
4359;SDS011;2193;47.980;7.660;2022-12-15T08:52:14;60.97;;;29.90;;
4359;SDS011;2193;47.980;7.660;2022-12-15T08:54:39;69.13;;;31.77;;
4359;SDS011;2193;47.980;7.660;2022-12-15T08:57:04;71.40;;;32.77;;
4359;SDS011;2193;47.980;7.660;2022-12-15T08:59:30;72.60;;;34.17;;
4359;SDS011;2193;47.980;7.660;2022-12-15T09:01:55;64.33;;;31.57;;
4359;SDS011;2193;47.980;7.660;2022-12-15T09:04:20;69.40;;;31.87;;
4359;SDS011;2193;47.980;7.660;2022-12-15T09:06:45;58.87;;;28.30;;
4359;SDS011;2193;47.980;7.660;2022-12-15T09:09:11;65.77;;;31.40;;
4359;SDS011;2193;47.980;7.660;2022-12-15T09:11:36;65.03;;;31.90;;
4359;SDS011;2193;47.980;7.660;2022-12-15T09:14:02;63.00;;;30.30;;
4359;SDS011;2193;47.980;7.660;2022-12-15T09:16:27;61.03;;;29.47;;
4359;SDS011;2193;47.980;7.660;2022-12-15T09:18:53;57.20;;;28.70;;
4359;SDS011;2193;47.980;7.660;2022-12-15T09:21:19;56.00;;;26.80;;
4359;SDS011;2193;47.980;7.660;2022-12-15T09:23:49;58.72;;;28.33;;
4359;SDS011;2193;47.980;7.660;2022-12-15T09:26:16;57.65;;;27.25;;
4359;SDS011;2193;47.980;7.660;2022-12-15T09:28:41;52.70;;;27.83;;
4359;SDS011;2193;47.980;7.660;2022-12-15T09:31:11;55.07;;;27.30;;
4359;SDS011;2193;47.980;7.660;2022-12-15T09:33:37;58.95;;;29.45;;
4359;SDS011;2193;47.980;7.660;2022-12-15T09:36:03;51.65;;;26.88;;
4359;SDS011;2193;47.980;7.660;2022-12-15T09:38:28;59.33;;;27.63;;
4359;SDS011;2193;47.980;7.660;2022-12-15T09:40:54;53.43;;;28.00;;
4359;SDS011;2193;47.980;7.660;2022-12-15T09:43:21;55.97;;;26.88;;
4359;SDS011;2193;47.980;7.660;2022-12-15T09:45:49;55.33;;;28.73;;
4359;SDS011;2193;47.980;7.660;2022-12-15T09:48:19;58.65;;;27.70;;
4359;SDS011;2193;47.980;7.660;2022-12-15T09:50:45;60.45;;;29.55;;
4359;SDS011;2193;47.980;7.660;2022-12-15T09:53:13;56.00;;;28.85;;
4359;SDS011;2193;47.980;7.660;2022-12-15T09:55:41;68.55;;;32.38;;
4359;SDS011;2193;47.980;7.660;2022-12-15T10:00:39;62.42;;;28.75;;
4359;SDS011;2193;47.980;7.660;2022-12-15T10:08:02;66.90;;;29.88;;
4359;SDS011;2193;47.980;7.660;2022-12-15T10:12:53;68.00;;;33.10;;
4359;SDS011;2193;47.980;7.660;2022-12-15T10:15:24;76.43;;;34.30;;
4359;SDS011;2193;47.980;7.660;2022-12-15T10:17:51;70.20;;;30.80;;
4359;SDS011;2193;47.980;7.660;2022-12-15T10:20:19;66.63;;;31.13;;
4359;SDS011;2193;47.980;7.660;2022-12-15T10:22:45;70.25;;;33.10;;
4359;SDS011;2193;47.980;7.660;2022-12-15T10:28:02;68.75;;;32.40;;
4359;SDS011;2193;47.980;7.660;2022-12-15T10:30:31;71.57;;;32.08;;
4359;SDS011;2193;47.980;7.660;2022-12-15T10:33:01;71.20;;;33.53;;
4359;SDS011;2193;47.980;7.660;2022-12-15T10:35:31;71.13;;;31.85;;
4359;SDS011;2193;47.980;7.660;2022-12-15T10:37:57;64.15;;;31.40;;
4359;SDS011;2193;47.980;7.660;2022-12-15T10:48:34;66.07;;;31.45;;
4359;SDS011;2193;47.980;7.660;2022-12-15T10:53:39;75.53;;;32.78;;
4359;SDS011;2193;47.980;7.660;2022-12-15T10:56:05;65.30;;;31.77;;
4359;SDS011;2193;47.980;7.660;2022-12-15T10:58:31;69.28;;;32.20;;
4359;SDS011;2193;47.980;7.660;2022-12-15T11:01:07;76.87;;;33.03;;
4359;SDS011;2193;47.980;7.660;2022-12-15T11:03:35;77.15;;;33.67;;
4359;SDS011;2193;47.980;7.660;2022-12-15T11:06:00;67.75;;;31.23;;
4359;SDS011;2193;47.980;7.660;2022-12-15T11:08:25;65.87;;;31.20;;
4359;SDS011;2193;47.980;7.660;2022-12-15T11:10:54;64.72;;;31.05;;
4359;SDS011;2193;47.980;7.660;2022-12-15T11:13:37;63.10;;;29.80;;
4359;SDS011;2193;47.980;7.660;2022-12-15T11:16:13;70.27;;;32.47;;
4359;SDS011;2193;47.980;7.660;2022-12-15T11:18:52;61.50;;;29.70;;
4359;SDS011;2193;47.980;7.660;2022-12-15T11:21:25;61.10;;;29.30;;
4359;SDS011;2193;47.980;7.660;2022-12-15T11:27:03;63.30;;;30.00;;
4359;SDS011;2193;47.980;7.660;2022-12-15T11:31:51;68.05;;;31.65;;
4359;SDS011;2193;47.980;7.660;2022-12-15T11:34:18;64.00;;;29.77;;
4359;SDS011;2193;47.980;7.660;2022-12-15T11:36:52;68.72;;;31.13;;
4359;SDS011;2193;47.980;7.660;2022-12-15T11:39:30;71.53;;;32.50;;
4359;SDS011;2193;47.980;7.660;2022-12-15T11:42:02;74.95;;;32.05;;
4359;SDS011;2193;47.980;7.660;2022-12-15T11:44:33;73.85;;;32.88;;
4359;SDS011;2193;47.980;7.660;2022-12-15T11:47:15;67.55;;;31.52;;
4359;SDS011;2193;47.980;7.660;2022-12-15T11:54:52;75.77;;;33.40;;
4359;SDS011;2193;47.980;7.660;2022-12-15T12:04:56;74.80;;;32.27;;
4359;SDS011;2193;47.980;7.660;2022-12-15T12:10:03;66.35;;;32.10;;
4359;SDS011;2193;47.980;7.660;2022-12-15T12:22:46;75.53;;;33.65;;
4359;SDS011;2193;47.980;7.660;2022-12-15T12:25:17;64.35;;;30.05;;
4359;SDS011;2193;47.980;7.660;2022-12-15T12:30:12;69.37;;;31.50;;
4359;SDS011;2193;47.980;7.660;2022-12-15T12:37:42;76.03;;;31.85;;
4359;SDS011;2193;47.980;7.660;2022-12-15T12:40:26;78.90;;;33.30;;
4359;SDS011;2193;47.980;7.660;2022-12-15T12:42:53;82.40;;;35.38;;
4359;SDS011;2193;47.980;7.660;2022-12-15T12:45:20;71.47;;;34.05;;
4359;SDS011;2193;47.980;7.660;2022-12-15T12:47:47;77.85;;;33.40;;
4359;SDS011;2193;47.980;7.660;2022-12-15T12:52:45;82.40;;;36.10;;
4359;SDS011;2193;47.980;7.660;2022-12-15T12:57:37;76.23;;;33.67;;
4359;SDS011;2193;47.980;7.660;2022-12-15T13:07:32;73.65;;;32.60;;
4359;SDS011;2193;47.980;7.660;2022-12-15T13:10:12;76.05;;;33.95;;
4359;SDS011;2193;47.980;7.660;2022-12-15T13:15:13;80.15;;;35.15;;
4359;SDS011;2193;47.980;7.660;2022-12-15T13:17:43;87.63;;;37.60;;
4359;SDS011;2193;47.980;7.660;2022-12-15T13:20:16;95.38;;;41.63;;
4359;SDS011;2193;47.980;7.660;2022-12-15T13:22:41;82.90;;;36.15;;
4359;SDS011;2193;47.980;7.660;2022-12-15T13:27:51;81.63;;;34.67;;
4359;SDS011;2193;47.980;7.660;2022-12-15T13:30:17;83.68;;;35.28;;
4359;SDS011;2193;47.980;7.660;2022-12-15T13:32:46;99.77;;;42.70;;
4359;SDS011;2193;47.980;7.660;2022-12-15T13:35:25;88.90;;;37.38;;
4359;SDS011;2193;47.980;7.660;2022-12-15T13:37:54;94.68;;;37.40;;
4359;SDS011;2193;47.980;7.660;2022-12-15T13:45:50;86.78;;;37.08;;
4359;SDS011;2193;47.980;7.660;2022-12-15T13:51:02;89.25;;;37.22;;
4359;SDS011;2193;47.980;7.660;2022-12-15T13:53:30;93.60;;;37.72;;
4359;SDS011;2193;47.980;7.660;2022-12-15T13:56:02;92.35;;;39.22;;
4359;SDS011;2193;47.980;7.660;2022-12-15T13:58:29;89.80;;;38.55;;
4359;SDS011;2193;47.980;7.660;2022-12-15T14:00:57;99.15;;;38.50;;
4359;SDS011;2193;47.980;7.660;2022-12-15T14:03:22;83.57;;;38.77;;
4359;SDS011;2193;47.980;7.660;2022-12-15T14:05:48;89.43;;;36.50;;
4359;SDS011;2193;47.980;7.660;2022-12-15T14:08:14;92.80;;;37.85;;
4359;SDS011;2193;47.980;7.660;2022-12-15T14:15:48;104.35;;;41.58;;
4359;SDS011;2193;47.980;7.660;2022-12-15T14:18:30;111.32;;;39.45;;
4359;SDS011;2193;47.980;7.660;2022-12-15T14:20:57;107.38;;;40.00;;
4359;SDS011;2193;47.980;7.660;2022-12-15T14:23:24;110.45;;;42.42;;
4359;SDS011;2193;47.980;7.660;2022-12-15T14:26:00;108.63;;;40.78;;
4359;SDS011;2193;47.980;7.660;2022-12-15T14:28:27;113.03;;;42.65;;
4359;SDS011;2193;47.980;7.660;2022-12-15T14:30:55;120.45;;;42.63;;
4359;SDS011;2193;47.980;7.660;2022-12-15T14:33:21;114.28;;;40.78;;
4359;SDS011;2193;47.980;7.660;2022-12-15T14:35:49;110.57;;;42.47;;
4359;SDS011;2193;47.980;7.660;2022-12-15T14:40:46;105.97;;;39.75;;
4359;SDS011;2193;47.980;7.660;2022-12-15T14:43:18;118.00;;;42.43;;
4359;SDS011;2193;47.980;7.660;2022-12-15T14:45:44;104.53;;;39.35;;
4359;SDS011;2193;47.980;7.660;2022-12-15T14:48:13;106.20;;;39.50;;
4359;SDS011;2193;47.980;7.660;2022-12-15T14:50:45;110.40;;;40.75;;
4359;SDS011;2193;47.980;7.660;2022-12-15T14:53:15;98.15;;;38.40;;
4359;SDS011;2193;47.980;7.660;2022-12-15T14:55:41;107.55;;;43.33;;
4359;SDS011;2193;47.980;7.660;2022-12-15T15:01:24;103.45;;;38.78;;
4359;SDS011;2193;47.980;7.660;2022-12-15T15:03:56;95.15;;;37.22;;
4359;SDS011;2193;47.980;7.660;2022-12-15T15:06:22;103.90;;;40.75;;
4359;SDS011;2193;47.980;7.660;2022-12-15T15:08:52;109.60;;;40.15;;
4359;SDS011;2193;47.980;7.660;2022-12-15T15:13:42;113.97;;;40.67;;
4359;SDS011;2193;47.980;7.660;2022-12-15T15:16:13;97.80;;;41.27;;
4359;SDS011;2193;47.980;7.660;2022-12-15T15:18:39;103.25;;;38.97;;
4359;SDS011;2193;47.980;7.660;2022-12-15T15:21:05;95.68;;;39.85;;
4359;SDS011;2193;47.980;7.660;2022-12-15T15:23:31;91.87;;;38.27;;
4359;SDS011;2193;47.980;7.660;2022-12-15T15:26:05;97.97;;;36.80;;
4359;SDS011;2193;47.980;7.660;2022-12-15T15:28:41;88.88;;;35.80;;
4359;SDS011;2193;47.980;7.660;2022-12-15T15:33:53;94.15;;;37.88;;
4359;SDS011;2193;47.980;7.660;2022-12-15T15:36:22;97.63;;;37.80;;
4359;SDS011;2193;47.980;7.660;2022-12-15T15:38:47;91.00;;;37.40;;
4359;SDS011;2193;47.980;7.660;2022-12-15T15:43:37;93.57;;;38.77;;
4359;SDS011;2193;47.980;7.660;2022-12-15T15:46:03;96.23;;;37.10;;
4359;SDS011;2193;47.980;7.660;2022-12-15T15:48:33;90.40;;;36.75;;
4359;SDS011;2193;47.980;7.660;2022-12-15T15:50:59;93.30;;;37.90;;
4359;SDS011;2193;47.980;7.660;2022-12-15T15:53:25;97.63;;;38.60;;
4359;SDS011;2193;47.980;7.660;2022-12-15T15:55:52;100.27;;;38.33;;
4359;SDS011;2193;47.980;7.660;2022-12-15T15:58:18;91.43;;;37.00;;
4359;SDS011;2193;47.980;7.660;2022-12-15T16:00:43;85.23;;;37.20;;
4359;SDS011;2193;47.980;7.660;2022-12-15T16:03:08;81.70;;;34.43;;
4359;SDS011;2193;47.980;7.660;2022-12-15T16:05:34;81.80;;;36.07;;
4359;SDS011;2193;47.980;7.660;2022-12-15T16:08:00;89.80;;;36.27;;
4359;SDS011;2193;47.980;7.660;2022-12-15T16:10:25;96.00;;;37.80;;
4359;SDS011;2193;47.980;7.660;2022-12-15T16:12:51;98.13;;;41.00;;
4359;SDS011;2193;47.980;7.660;2022-12-15T16:15:21;97.32;;;38.45;;
4359;SDS011;2193;47.980;7.660;2022-12-15T16:17:47;90.72;;;38.28;;
4359;SDS011;2193;47.980;7.660;2022-12-15T16:20:14;94.13;;;38.70;;
4359;SDS011;2193;47.980;7.660;2022-12-15T16:22:40;94.13;;;38.95;;
4359;SDS011;2193;47.980;7.660;2022-12-15T16:25:08;97.45;;;39.03;;
4359;SDS011;2193;47.980;7.660;2022-12-15T16:27:36;79.68;;;35.88;;
4359;SDS011;2193;47.980;7.660;2022-12-15T16:30:04;77.90;;;36.80;;
4359;SDS011;2193;47.980;7.660;2022-12-15T16:32:29;83.85;;;35.38;;
4359;SDS011;2193;47.980;7.660;2022-12-15T16:34:55;86.20;;;37.20;;
4359;SDS011;2193;47.980;7.660;2022-12-15T16:37:26;81.10;;;37.40;;
4359;SDS011;2193;47.980;7.660;2022-12-15T16:39:51;93.57;;;38.28;;
4359;SDS011;2193;47.980;7.660;2022-12-15T16:42:17;88.33;;;36.97;;
4359;SDS011;2193;47.980;7.660;2022-12-15T16:44:42;87.87;;;36.80;;
4359;SDS011;2193;47.980;7.660;2022-12-15T16:47:07;85.70;;;36.90;;
4359;SDS011;2193;47.980;7.660;2022-12-15T16:49:32;79.63;;;36.47;;
4359;SDS011;2193;47.980;7.660;2022-12-15T16:51:57;84.20;;;37.30;;
4359;SDS011;2193;47.980;7.660;2022-12-15T16:54:24;86.13;;;36.47;;
4359;SDS011;2193;47.980;7.660;2022-12-15T16:56:50;92.10;;;40.53;;
4359;SDS011;2193;47.980;7.660;2022-12-15T16:59:18;84.90;;;37.75;;
4359;SDS011;2193;47.980;7.660;2022-12-15T17:01:43;82.65;;;38.40;;
4359;SDS011;2193;47.980;7.660;2022-12-15T17:04:09;83.30;;;37.03;;
4359;SDS011;2193;47.980;7.660;2022-12-15T17:06:34;88.57;;;38.20;;
4359;SDS011;2193;47.980;7.660;2022-12-15T17:08:59;86.97;;;40.07;;